sensor_id;sensor_type;location;lat;lon;timestamp;temperature;humidity
57857;DHT22;43683;48.650;9.290;2024-01-27T00:01:36;0.50;95.90
57857;DHT22;43683;48.650;9.290;2024-01-27T00:04:01;0.40;95.90
57857;DHT22;43683;48.650;9.290;2024-01-27T00:06:27;0.20;95.90
57857;DHT22;43683;48.650;9.290;2024-01-27T00:08:52;0.00;95.90
57857;DHT22;43683;48.650;9.290;2024-01-27T00:11:18;-0.10;96.00
57857;DHT22;43683;48.650;9.290;2024-01-27T00:13:45;-0.20;96.10
57857;DHT22;43683;48.650;9.290;2024-01-27T00:16:11;-0.30;96.00
57857;DHT22;43683;48.650;9.290;2024-01-27T00:18:37;-0.40;96.10
57857;DHT22;43683;48.650;9.290;2024-01-27T00:21:04;-0.50;96.10
57857;DHT22;43683;48.650;9.290;2024-01-27T00:23:29;-0.60;96.10
57857;DHT22;43683;48.650;9.290;2024-01-27T00:25:55;-0.70;96.10
57857;DHT22;43683;48.650;9.290;2024-01-27T00:28:21;-0.80;96.10
57857;DHT22;43683;48.650;9.290;2024-01-27T00:30:46;-0.90;96.20
57857;DHT22;43683;48.650;9.290;2024-01-27T00:33:12;-1.10;96.20
57857;DHT22;43683;48.650;9.290;2024-01-27T00:35:37;-1.10;96.30
57857;DHT22;43683;48.650;9.290;2024-01-27T00:38:03;-1.30;96.30
57857;DHT22;43683;48.650;9.290;2024-01-27T00:40:28;-1.30;96.30
57857;DHT22;43683;48.650;9.290;2024-01-27T00:42:54;-1.40;96.40
57857;DHT22;43683;48.650;9.290;2024-01-27T00:45:20;-1.30;96.40
57857;DHT22;43683;48.650;9.290;2024-01-27T00:47:50;-1.30;96.30
57857;DHT22;43683;48.650;9.290;2024-01-27T00:50:16;-1.30;96.20
57857;DHT22;43683;48.650;9.290;2024-01-27T00:52:42;-1.30;96.30
57857;DHT22;43683;48.650;9.290;2024-01-27T00:55:08;-1.30;96.30
57857;DHT22;43683;48.650;9.290;2024-01-27T00:57:37;-1.30;96.30
57857;DHT22;43683;48.650;9.290;2024-01-27T01:00:05;-1.40;96.40
57857;DHT22;43683;48.650;9.290;2024-01-27T01:02:32;-1.40;96.40
57857;DHT22;43683;48.650;9.290;2024-01-27T01:04:57;-1.30;96.40
57857;DHT22;43683;48.650;9.290;2024-01-27T01:07:23;-1.30;96.40
57857;DHT22;43683;48.650;9.290;2024-01-27T01:09:49;-1.40;96.30
57857;DHT22;43683;48.650;9.290;2024-01-27T01:12:14;-1.30;96.30
57857;DHT22;43683;48.650;9.290;2024-01-27T01:14:42;-1.30;96.40
57857;DHT22;43683;48.650;9.290;2024-01-27T01:17:08;-1.30;96.70
57857;DHT22;43683;48.650;9.290;2024-01-27T01:19:33;-1.40;96.40
57857;DHT22;43683;48.650;9.290;2024-01-27T01:21:59;-1.40;96.40
57857;DHT22;43683;48.650;9.290;2024-01-27T01:24:24;-1.40;96.50
57857;DHT22;43683;48.650;9.290;2024-01-27T01:26:50;-1.40;96.50
57857;DHT22;43683;48.650;9.290;2024-01-27T01:29:16;-1.40;96.50
57857;DHT22;43683;48.650;9.290;2024-01-27T01:31:42;-1.30;96.50
57857;DHT22;43683;48.650;9.290;2024-01-27T01:34:08;-1.20;96.40
57857;DHT22;43683;48.650;9.290;2024-01-27T01:36:34;-1.10;96.30
57857;DHT22;43683;48.650;9.290;2024-01-27T01:38:59;-1.20;96.30
57857;DHT22;43683;48.650;9.290;2024-01-27T01:41:25;-1.30;96.50
57857;DHT22;43683;48.650;9.290;2024-01-27T01:43:50;-1.30;96.60
57857;DHT22;43683;48.650;9.290;2024-01-27T01:46:16;-1.30;96.70
57857;DHT22;43683;48.650;9.290;2024-01-27T01:48:42;-1.40;96.70
57857;DHT22;43683;48.650;9.290;2024-01-27T01:51:08;-1.50;96.80
57857;DHT22;43683;48.650;9.290;2024-01-27T01:53:34;-1.60;96.90
57857;DHT22;43683;48.650;9.290;2024-01-27T01:56:00;-1.70;97.00
57857;DHT22;43683;48.650;9.290;2024-01-27T01:58:26;-1.70;97.10
57857;DHT22;43683;48.650;9.290;2024-01-27T02:01:02;-1.70;97.10
57857;DHT22;43683;48.650;9.290;2024-01-27T02:03:27;-1.70;97.20
57857;DHT22;43683;48.650;9.290;2024-01-27T02:05:54;-1.80;97.20
57857;DHT22;43683;48.650;9.290;2024-01-27T02:08:20;-1.80;97.30
57857;DHT22;43683;48.650;9.290;2024-01-27T02:10:45;-1.90;97.20
57857;DHT22;43683;48.650;9.290;2024-01-27T02:13:21;-2.00;97.20
57857;DHT22;43683;48.650;9.290;2024-01-27T02:15:48;-2.00;97.30
57857;DHT22;43683;48.650;9.290;2024-01-27T02:18:14;-2.10;97.30
57857;DHT22;43683;48.650;9.290;2024-01-27T02:20:39;-2.10;97.30
57857;DHT22;43683;48.650;9.290;2024-01-27T02:23:05;-2.00;97.30
57857;DHT22;43683;48.650;9.290;2024-01-27T02:25:32;-2.00;97.40
57857;DHT22;43683;48.650;9.290;2024-01-27T02:27:58;-2.00;97.30
57857;DHT22;43683;48.650;9.290;2024-01-27T02:30:23;-2.10;97.30
57857;DHT22;43683;48.650;9.290;2024-01-27T02:32:49;-2.00;97.30
57857;DHT22;43683;48.650;9.290;2024-01-27T02:35:15;-2.00;97.30
57857;DHT22;43683;48.650;9.290;2024-01-27T02:37:41;-2.00;97.30
57857;DHT22;43683;48.650;9.290;2024-01-27T02:40:08;-2.10;97.40
57857;DHT22;43683;48.650;9.290;2024-01-27T02:42:35;-2.20;97.40
57857;DHT22;43683;48.650;9.290;2024-01-27T02:45:01;-2.20;97.50
57857;DHT22;43683;48.650;9.290;2024-01-27T02:47:27;-2.30;97.50
57857;DHT22;43683;48.650;9.290;2024-01-27T02:49:53;-2.30;97.60
57857;DHT22;43683;48.650;9.290;2024-01-27T02:52:18;-2.20;97.60
57857;DHT22;43683;48.650;9.290;2024-01-27T02:54:44;-2.30;97.60
57857;DHT22;43683;48.650;9.290;2024-01-27T02:57:09;-2.30;97.70
57857;DHT22;43683;48.650;9.290;2024-01-27T02:59:35;-2.40;97.80
57857;DHT22;43683;48.650;9.290;2024-01-27T03:02:01;-2.30;97.90
57857;DHT22;43683;48.650;9.290;2024-01-27T03:04:26;-2.30;98.00
57857;DHT22;43683;48.650;9.290;2024-01-27T03:06:52;-2.30;98.00
57857;DHT22;43683;48.650;9.290;2024-01-27T03:09:17;-2.30;98.10
57857;DHT22;43683;48.650;9.290;2024-01-27T03:11:43;-2.30;98.10
57857;DHT22;43683;48.650;9.290;2024-01-27T03:14:09;-2.40;98.10
57857;DHT22;43683;48.650;9.290;2024-01-27T03:16:35;-2.50;98.10
57857;DHT22;43683;48.650;9.290;2024-01-27T03:19:01;-2.50;98.20
57857;DHT22;43683;48.650;9.290;2024-01-27T03:21:27;-2.50;98.20
57857;DHT22;43683;48.650;9.290;2024-01-27T03:23:53;-2.50;98.20
57857;DHT22;43683;48.650;9.290;2024-01-27T03:26:18;-2.60;98.20
57857;DHT22;43683;48.650;9.290;2024-01-27T03:28:44;-2.60;98.30
57857;DHT22;43683;48.650;9.290;2024-01-27T03:31:09;-2.50;98.40
57857;DHT22;43683;48.650;9.290;2024-01-27T03:33:35;-2.50;98.40
57857;DHT22;43683;48.650;9.290;2024-01-27T03:36:00;-2.50;98.40
57857;DHT22;43683;48.650;9.290;2024-01-27T03:38:26;-2.50;98.50
57857;DHT22;43683;48.650;9.290;2024-01-27T03:40:51;-2.50;98.50
57857;DHT22;43683;48.650;9.290;2024-01-27T03:43:17;-2.40;98.60
57857;DHT22;43683;48.650;9.290;2024-01-27T03:45:43;-2.30;98.70
57857;DHT22;43683;48.650;9.290;2024-01-27T03:48:08;-2.20;98.70
57857;DHT22;43683;48.650;9.290;2024-01-27T03:50:34;-2.10;98.60
57857;DHT22;43683;48.650;9.290;2024-01-27T03:52:59;-2.10;98.50
57857;DHT22;43683;48.650;9.290;2024-01-27T03:55:25;-2.20;98.50
57857;DHT22;43683;48.650;9.290;2024-01-27T03:57:51;-1.70;99.00
57857;DHT22;43683;48.650;9.290;2024-01-27T04:00:16;-1.70;98.60
57857;DHT22;43683;48.650;9.290;2024-01-27T04:02:42;-1.90;98.50
57857;DHT22;43683;48.650;9.290;2024-01-27T04:05:07;-2.00;98.60
57857;DHT22;43683;48.650;9.290;2024-01-27T04:07:33;-2.10;98.70
57857;DHT22;43683;48.650;9.290;2024-01-27T04:09:58;-2.20;98.80
57857;DHT22;43683;48.650;9.290;2024-01-27T04:12:24;-2.20;98.90
57857;DHT22;43683;48.650;9.290;2024-01-27T04:14:50;-2.30;98.90
57857;DHT22;43683;48.650;9.290;2024-01-27T04:17:15;-2.30;99.00
57857;DHT22;43683;48.650;9.290;2024-01-27T04:19:41;-2.30;99.00
57857;DHT22;43683;48.650;9.290;2024-01-27T04:22:06;-2.40;98.90
57857;DHT22;43683;48.650;9.290;2024-01-27T04:24:32;-2.50;98.90
57857;DHT22;43683;48.650;9.290;2024-01-27T04:26:59;-2.50;98.90
57857;DHT22;43683;48.650;9.290;2024-01-27T04:29:24;-2.50;98.90
57857;DHT22;43683;48.650;9.290;2024-01-27T04:31:50;-2.50;98.90
57857;DHT22;43683;48.650;9.290;2024-01-27T04:34:16;-2.50;98.80
57857;DHT22;43683;48.650;9.290;2024-01-27T04:36:41;-2.50;99.20
57857;DHT22;43683;48.650;9.290;2024-01-27T04:39:07;-2.40;98.90
57857;DHT22;43683;48.650;9.290;2024-01-27T04:41:32;-2.40;98.80
57857;DHT22;43683;48.650;9.290;2024-01-27T04:43:58;-2.40;98.80
57857;DHT22;43683;48.650;9.290;2024-01-27T04:46:24;-2.40;98.80
57857;DHT22;43683;48.650;9.290;2024-01-27T04:48:50;-2.40;98.80
57857;DHT22;43683;48.650;9.290;2024-01-27T04:51:15;-2.50;98.80
57857;DHT22;43683;48.650;9.290;2024-01-27T04:53:41;-2.50;98.80
57857;DHT22;43683;48.650;9.290;2024-01-27T04:56:06;-2.50;98.80
57857;DHT22;43683;48.650;9.290;2024-01-27T04:58:34;-2.50;98.90
57857;DHT22;43683;48.650;9.290;2024-01-27T05:01:00;-2.40;98.80
57857;DHT22;43683;48.650;9.290;2024-01-27T05:03:26;-2.30;98.80
57857;DHT22;43683;48.650;9.290;2024-01-27T05:05:52;-2.30;98.80
57857;DHT22;43683;48.650;9.290;2024-01-27T05:08:17;-2.30;98.90
57857;DHT22;43683;48.650;9.290;2024-01-27T05:10:43;-2.40;98.90
57857;DHT22;43683;48.650;9.290;2024-01-27T05:13:08;-2.40;99.00
57857;DHT22;43683;48.650;9.290;2024-01-27T05:15:34;-2.50;99.10
57857;DHT22;43683;48.650;9.290;2024-01-27T05:18:00;-2.60;99.10
57857;DHT22;43683;48.650;9.290;2024-01-27T05:20:26;-2.60;99.20
57857;DHT22;43683;48.650;9.290;2024-01-27T05:22:51;-2.60;99.20
57857;DHT22;43683;48.650;9.290;2024-01-27T05:25:17;-2.70;99.30
57857;DHT22;43683;48.650;9.290;2024-01-27T05:27:42;-2.80;99.30
57857;DHT22;43683;48.650;9.290;2024-01-27T05:30:08;-2.80;99.30
57857;DHT22;43683;48.650;9.290;2024-01-27T05:32:34;-2.80;99.30
57857;DHT22;43683;48.650;9.290;2024-01-27T05:35:00;-2.80;99.30
57857;DHT22;43683;48.650;9.290;2024-01-27T05:37:25;-2.80;99.30
57857;DHT22;43683;48.650;9.290;2024-01-27T05:39:51;-2.90;99.30
57857;DHT22;43683;48.650;9.290;2024-01-27T05:42:17;-2.90;99.30
57857;DHT22;43683;48.650;9.290;2024-01-27T05:44:42;-2.90;99.30
57857;DHT22;43683;48.650;9.290;2024-01-27T05:47:08;-2.90;99.30
57857;DHT22;43683;48.650;9.290;2024-01-27T05:49:36;-2.80;99.30
57857;DHT22;43683;48.650;9.290;2024-01-27T05:52:02;-2.80;99.30
57857;DHT22;43683;48.650;9.290;2024-01-27T05:54:28;-2.80;99.30
57857;DHT22;43683;48.650;9.290;2024-01-27T05:56:53;-2.70;99.30
57857;DHT22;43683;48.650;9.290;2024-01-27T05:59:19;-2.70;99.30
57857;DHT22;43683;48.650;9.290;2024-01-27T06:01:44;-2.70;99.30
57857;DHT22;43683;48.650;9.290;2024-01-27T06:04:10;-2.60;99.30
57857;DHT22;43683;48.650;9.290;2024-01-27T06:06:38;-2.60;99.30
57857;DHT22;43683;48.650;9.290;2024-01-27T06:09:03;-2.70;99.40
57857;DHT22;43683;48.650;9.290;2024-01-27T06:11:29;-2.80;99.30
57857;DHT22;43683;48.650;9.290;2024-01-27T06:13:55;-2.90;99.40
57857;DHT22;43683;48.650;9.290;2024-01-27T06:16:20;-2.80;99.50
57857;DHT22;43683;48.650;9.290;2024-01-27T06:18:46;-2.90;99.50
57857;DHT22;43683;48.650;9.290;2024-01-27T06:21:12;-2.80;99.50
57857;DHT22;43683;48.650;9.290;2024-01-27T06:23:37;-2.90;99.40
57857;DHT22;43683;48.650;9.290;2024-01-27T06:26:06;-2.90;99.50
57857;DHT22;43683;48.650;9.290;2024-01-27T06:28:32;-2.80;99.50
57857;DHT22;43683;48.650;9.290;2024-01-27T06:30:58;-2.90;99.40
57857;DHT22;43683;48.650;9.290;2024-01-27T06:33:23;-2.90;99.40
57857;DHT22;43683;48.650;9.290;2024-01-27T06:35:49;-2.90;99.30
57857;DHT22;43683;48.650;9.290;2024-01-27T06:38:14;-3.00;99.30
57857;DHT22;43683;48.650;9.290;2024-01-27T06:40:40;-3.10;99.30
57857;DHT22;43683;48.650;9.290;2024-01-27T06:43:06;-3.30;99.30
57857;DHT22;43683;48.650;9.290;2024-01-27T06:45:31;-3.30;99.30
57857;DHT22;43683;48.650;9.290;2024-01-27T06:47:57;-3.40;99.30
57857;DHT22;43683;48.650;9.290;2024-01-27T06:50:22;-3.40;99.30
57857;DHT22;43683;48.650;9.290;2024-01-27T06:52:48;-3.20;99.30
57857;DHT22;43683;48.650;9.290;2024-01-27T06:55:14;-3.10;99.30
57857;DHT22;43683;48.650;9.290;2024-01-27T06:57:39;-3.10;99.30
57857;DHT22;43683;48.650;9.290;2024-01-27T07:00:06;-3.20;99.30
57857;DHT22;43683;48.650;9.290;2024-01-27T07:02:32;-3.30;99.40
57857;DHT22;43683;48.650;9.290;2024-01-27T07:04:58;-3.30;99.40
57857;DHT22;43683;48.650;9.290;2024-01-27T07:07:26;-3.30;99.80
57857;DHT22;43683;48.650;9.290;2024-01-27T07:09:52;-3.30;99.50
57857;DHT22;43683;48.650;9.290;2024-01-27T07:12:18;-3.30;99.50
57857;DHT22;43683;48.650;9.290;2024-01-27T07:14:44;-3.30;99.50
57857;DHT22;43683;48.650;9.290;2024-01-27T07:17:09;-3.30;99.80
57857;DHT22;43683;48.650;9.290;2024-01-27T07:19:35;-3.20;99.50
57857;DHT22;43683;48.650;9.290;2024-01-27T07:22:00;-3.20;99.50
57857;DHT22;43683;48.650;9.290;2024-01-27T07:24:26;-3.20;99.40
57857;DHT22;43683;48.650;9.290;2024-01-27T07:26:52;-3.20;99.40
57857;DHT22;43683;48.650;9.290;2024-01-27T07:29:17;-3.10;99.50
57857;DHT22;43683;48.650;9.290;2024-01-27T07:31:43;-3.00;99.60
57857;DHT22;43683;48.650;9.290;2024-01-27T07:34:08;-2.90;99.60
57857;DHT22;43683;48.650;9.290;2024-01-27T07:36:34;-2.80;99.60
57857;DHT22;43683;48.650;9.290;2024-01-27T07:39:00;-2.80;99.60
57857;DHT22;43683;48.650;9.290;2024-01-27T07:41:26;-2.70;99.90
57857;DHT22;43683;48.650;9.290;2024-01-27T07:43:52;-2.70;99.60
57857;DHT22;43683;48.650;9.290;2024-01-27T07:46:17;-2.60;99.60
57857;DHT22;43683;48.650;9.290;2024-01-27T07:48:47;-2.50;99.80
57857;DHT22;43683;48.650;9.290;2024-01-27T07:51:13;-2.30;99.90
57857;DHT22;43683;48.650;9.290;2024-01-27T07:53:38;-2.10;99.90
57857;DHT22;43683;48.650;9.290;2024-01-27T07:56:04;-1.90;99.90
57857;DHT22;43683;48.650;9.290;2024-01-27T07:58:30;-1.80;99.90
57857;DHT22;43683;48.650;9.290;2024-01-27T08:00:56;-1.50;99.90
57857;DHT22;43683;48.650;9.290;2024-01-27T08:03:21;-1.20;99.90
57857;DHT22;43683;48.650;9.290;2024-01-27T08:05:47;-1.00;99.90
57857;DHT22;43683;48.650;9.290;2024-01-27T08:08:12;-0.70;99.90
57857;DHT22;43683;48.650;9.290;2024-01-27T08:10:38;-0.50;99.90
57857;DHT22;43683;48.650;9.290;2024-01-27T08:13:04;-0.30;99.90
57857;DHT22;43683;48.650;9.290;2024-01-27T08:15:30;0.00;99.90
57857;DHT22;43683;48.650;9.290;2024-01-27T08:17:55;0.20;99.90
57857;DHT22;43683;48.650;9.290;2024-01-27T08:20:21;0.50;99.90
57857;DHT22;43683;48.650;9.290;2024-01-27T08:22:46;0.60;99.90
57857;DHT22;43683;48.650;9.290;2024-01-27T08:25:15;0.80;99.90
57857;DHT22;43683;48.650;9.290;2024-01-27T08:27:41;1.00;99.90
57857;DHT22;43683;48.650;9.290;2024-01-27T08:30:07;1.10;99.90
57857;DHT22;43683;48.650;9.290;2024-01-27T08:32:33;1.20;99.90
57857;DHT22;43683;48.650;9.290;2024-01-27T08:35:00;1.20;99.90
57857;DHT22;43683;48.650;9.290;2024-01-27T08:37:25;1.20;99.90
57857;DHT22;43683;48.650;9.290;2024-01-27T08:39:51;1.20;99.90
57857;DHT22;43683;48.650;9.290;2024-01-27T08:42:17;1.30;99.90
57857;DHT22;43683;48.650;9.290;2024-01-27T08:44:42;1.40;99.90
57857;DHT22;43683;48.650;9.290;2024-01-27T08:47:08;1.60;99.90
57857;DHT22;43683;48.650;9.290;2024-01-27T08:49:33;1.80;99.90
57857;DHT22;43683;48.650;9.290;2024-01-27T08:51:59;2.10;99.90
57857;DHT22;43683;48.650;9.290;2024-01-27T08:54:24;2.40;99.90
57857;DHT22;43683;48.650;9.290;2024-01-27T08:56:50;2.60;99.90
57857;DHT22;43683;48.650;9.290;2024-01-27T08:59:15;3.00;99.90
57857;DHT22;43683;48.650;9.290;2024-01-27T09:01:41;3.30;99.90
57857;DHT22;43683;48.650;9.290;2024-01-27T09:04:07;3.60;99.90
57857;DHT22;43683;48.650;9.290;2024-01-27T09:06:33;3.80;99.90
57857;DHT22;43683;48.650;9.290;2024-01-27T09:08:58;4.10;99.90
57857;DHT22;43683;48.650;9.290;2024-01-27T09:11:24;4.30;99.90
57857;DHT22;43683;48.650;9.290;2024-01-27T09:13:52;4.50;99.80
57857;DHT22;43683;48.650;9.290;2024-01-27T09:16:18;4.70;99.50
57857;DHT22;43683;48.650;9.290;2024-01-27T09:18:44;4.80;98.90
57857;DHT22;43683;48.650;9.290;2024-01-27T09:21:11;5.00;98.80
57857;DHT22;43683;48.650;9.290;2024-01-27T09:23:37;5.10;98.30
57857;DHT22;43683;48.650;9.290;2024-01-27T09:26:03;5.30;98.00
57857;DHT22;43683;48.650;9.290;2024-01-27T09:28:29;5.40;97.80
57857;DHT22;43683;48.650;9.290;2024-01-27T09:30:54;5.60;97.10
57857;DHT22;43683;48.650;9.290;2024-01-27T09:33:20;5.70;96.40
57857;DHT22;43683;48.650;9.290;2024-01-27T09:35:49;5.80;96.20
57857;DHT22;43683;48.650;9.290;2024-01-27T09:38:14;5.90;96.10
57857;DHT22;43683;48.650;9.290;2024-01-27T09:40:40;5.90;96.00
57857;DHT22;43683;48.650;9.290;2024-01-27T09:43:06;6.00;95.80
57857;DHT22;43683;48.650;9.290;2024-01-27T09:45:32;6.10;96.00
57857;DHT22;43683;48.650;9.290;2024-01-27T09:47:59;6.10;96.10
57857;DHT22;43683;48.650;9.290;2024-01-27T09:50:26;6.30;96.00
57857;DHT22;43683;48.650;9.290;2024-01-27T09:52:52;6.40;95.90
57857;DHT22;43683;48.650;9.290;2024-01-27T09:55:19;6.50;96.10
57857;DHT22;43683;48.650;9.290;2024-01-27T09:57:45;6.70;95.70
57857;DHT22;43683;48.650;9.290;2024-01-27T10:00:11;6.90;95.30
57857;DHT22;43683;48.650;9.290;2024-01-27T10:02:41;7.10;95.00
57857;DHT22;43683;48.650;9.290;2024-01-27T10:05:09;7.30;94.60
57857;DHT22;43683;48.650;9.290;2024-01-27T10:07:34;7.40;94.20
57857;DHT22;43683;48.650;9.290;2024-01-27T10:10:00;7.50;93.90
57857;DHT22;43683;48.650;9.290;2024-01-27T10:12:28;7.60;93.70
57857;DHT22;43683;48.650;9.290;2024-01-27T10:14:54;7.70;94.10
57857;DHT22;43683;48.650;9.290;2024-01-27T10:19:47;8.10;94.60
57857;DHT22;43683;48.650;9.290;2024-01-27T10:22:13;8.20;94.30
57857;DHT22;43683;48.650;9.290;2024-01-27T10:24:38;8.30;94.20
57857;DHT22;43683;48.650;9.290;2024-01-27T10:27:04;8.50;94.10
57857;DHT22;43683;48.650;9.290;2024-01-27T10:29:33;8.70;93.70
57857;DHT22;43683;48.650;9.290;2024-01-27T10:32:11;8.90;93.30
57857;DHT22;43683;48.650;9.290;2024-01-27T10:34:36;9.00;92.80
57857;DHT22;43683;48.650;9.290;2024-01-27T10:37:02;9.00;93.90
57857;DHT22;43683;48.650;9.290;2024-01-27T10:39:27;9.10;93.70
57857;DHT22;43683;48.650;9.290;2024-01-27T10:41:53;9.10;93.40
57857;DHT22;43683;48.650;9.290;2024-01-27T10:44:19;9.30;93.20
57857;DHT22;43683;48.650;9.290;2024-01-27T10:46:47;9.40;92.90
57857;DHT22;43683;48.650;9.290;2024-01-27T10:49:13;9.50;92.80
57857;DHT22;43683;48.650;9.290;2024-01-27T10:51:46;9.60;93.20
57857;DHT22;43683;48.650;9.290;2024-01-27T10:54:23;9.60;92.10
57857;DHT22;43683;48.650;9.290;2024-01-27T10:56:51;9.50;91.60
57857;DHT22;43683;48.650;9.290;2024-01-27T10:59:17;9.70;91.70
57857;DHT22;43683;48.650;9.290;2024-01-27T11:01:44;9.80;91.60
57857;DHT22;43683;48.650;9.290;2024-01-27T11:04:12;9.90;91.40
57857;DHT22;43683;48.650;9.290;2024-01-27T11:06:39;10.10;90.90
57857;DHT22;43683;48.650;9.290;2024-01-27T11:09:08;10.10;90.40
57857;DHT22;43683;48.650;9.290;2024-01-27T11:11:34;10.00;89.90
57857;DHT22;43683;48.650;9.290;2024-01-27T11:14:00;10.10;89.90
57857;DHT22;43683;48.650;9.290;2024-01-27T11:16:26;10.10;89.90
57857;DHT22;43683;48.650;9.290;2024-01-27T11:18:53;10.00;89.70
57857;DHT22;43683;48.650;9.290;2024-01-27T11:21:19;10.00;89.90
57857;DHT22;43683;48.650;9.290;2024-01-27T11:23:45;10.10;89.50
57857;DHT22;43683;48.650;9.290;2024-01-27T11:26:18;10.10;89.60
57857;DHT22;43683;48.650;9.290;2024-01-27T11:28:44;10.20;88.50
57857;DHT22;43683;48.650;9.290;2024-01-27T11:31:10;10.20;88.70
57857;DHT22;43683;48.650;9.290;2024-01-27T11:33:43;10.30;88.30
57857;DHT22;43683;48.650;9.290;2024-01-27T11:36:19;10.40;87.30
57857;DHT22;43683;48.650;9.290;2024-01-27T11:38:45;10.40;86.70
57857;DHT22;43683;48.650;9.290;2024-01-27T11:41:11;10.40;87.10
57857;DHT22;43683;48.650;9.290;2024-01-27T11:43:37;10.40;86.60
57857;DHT22;43683;48.650;9.290;2024-01-27T11:46:02;10.60;86.30
57857;DHT22;43683;48.650;9.290;2024-01-27T11:48:28;10.70;85.30
57857;DHT22;43683;48.650;9.290;2024-01-27T11:51:07;10.80;84.00
57857;DHT22;43683;48.650;9.290;2024-01-27T11:53:36;10.80;82.20
57857;DHT22;43683;48.650;9.290;2024-01-27T11:56:02;10.90;82.50
57857;DHT22;43683;48.650;9.290;2024-01-27T11:58:29;10.90;81.50
57857;DHT22;43683;48.650;9.290;2024-01-27T12:00:55;11.20;80.30
57857;DHT22;43683;48.650;9.290;2024-01-27T12:03:21;11.70;77.70
57857;DHT22;43683;48.650;9.290;2024-01-27T12:05:47;12.20;75.00
57857;DHT22;43683;48.650;9.290;2024-01-27T12:08:13;12.20;74.10
57857;DHT22;43683;48.650;9.290;2024-01-27T12:10:38;12.10;74.20
57857;DHT22;43683;48.650;9.290;2024-01-27T12:13:04;12.60;72.10
57857;DHT22;43683;48.650;9.290;2024-01-27T12:15:30;12.70;70.80
57857;DHT22;43683;48.650;9.290;2024-01-27T12:17:55;12.30;71.30
57857;DHT22;43683;48.650;9.290;2024-01-27T12:20:24;12.00;72.40
57857;DHT22;43683;48.650;9.290;2024-01-27T12:23:01;11.90;72.30
57857;DHT22;43683;48.650;9.290;2024-01-27T12:25:26;11.90;72.80
57857;DHT22;43683;48.650;9.290;2024-01-27T12:27:52;11.80;73.30
57857;DHT22;43683;48.650;9.290;2024-01-27T12:30:17;11.70;72.70
57857;DHT22;43683;48.650;9.290;2024-01-27T12:32:43;11.70;72.70
57857;DHT22;43683;48.650;9.290;2024-01-27T12:35:09;11.90;72.00
57857;DHT22;43683;48.650;9.290;2024-01-27T12:37:35;11.70;71.00
57857;DHT22;43683;48.650;9.290;2024-01-27T12:40:01;11.60;70.80
57857;DHT22;43683;48.650;9.290;2024-01-27T12:42:26;11.60;70.60
57857;DHT22;43683;48.650;9.290;2024-01-27T12:44:52;11.50;70.10
57857;DHT22;43683;48.650;9.290;2024-01-27T12:47:18;11.40;69.70
57857;DHT22;43683;48.650;9.290;2024-01-27T12:49:45;11.30;69.50
57857;DHT22;43683;48.650;9.290;2024-01-27T12:52:10;11.40;69.20
57857;DHT22;43683;48.650;9.290;2024-01-27T12:54:36;11.30;68.80
57857;DHT22;43683;48.650;9.290;2024-01-27T12:57:01;11.40;68.70
57857;DHT22;43683;48.650;9.290;2024-01-27T12:59:27;12.00;67.20
57857;DHT22;43683;48.650;9.290;2024-01-27T13:01:54;13.30;63.70
57857;DHT22;43683;48.650;9.290;2024-01-27T13:04:19;14.50;60.00
57857;DHT22;43683;48.650;9.290;2024-01-27T13:06:45;15.30;57.40
57857;DHT22;43683;48.650;9.290;2024-01-27T13:09:11;15.60;55.80
57857;DHT22;43683;48.650;9.290;2024-01-27T13:11:37;16.60;52.80
57857;DHT22;43683;48.650;9.290;2024-01-27T13:14:03;17.30;50.70
57857;DHT22;43683;48.650;9.290;2024-01-27T13:16:29;17.70;49.50
57857;DHT22;43683;48.650;9.290;2024-01-27T13:18:54;17.60;49.00
57857;DHT22;43683;48.650;9.290;2024-01-27T13:21:20;16.40;50.60
57857;DHT22;43683;48.650;9.290;2024-01-27T13:23:45;14.90;53.90
57857;DHT22;43683;48.650;9.290;2024-01-27T13:26:11;13.90;56.20
57857;DHT22;43683;48.650;9.290;2024-01-27T13:28:36;13.10;58.30
57857;DHT22;43683;48.650;9.290;2024-01-27T13:31:02;12.70;59.50
57857;DHT22;43683;48.650;9.290;2024-01-27T13:33:28;12.50;60.00
57857;DHT22;43683;48.650;9.290;2024-01-27T13:35:54;12.20;60.40
57857;DHT22;43683;48.650;9.290;2024-01-27T13:38:20;12.10;60.70
57857;DHT22;43683;48.650;9.290;2024-01-27T13:40:52;11.90;60.80
57857;DHT22;43683;48.650;9.290;2024-01-27T13:43:17;11.80;60.80
57857;DHT22;43683;48.650;9.290;2024-01-27T13:45:43;11.80;60.90
57857;DHT22;43683;48.650;9.290;2024-01-27T13:48:10;11.60;60.80
57857;DHT22;43683;48.650;9.290;2024-01-27T13:50:35;11.40;60.40
57857;DHT22;43683;48.650;9.290;2024-01-27T13:53:01;11.00;60.00
57857;DHT22;43683;48.650;9.290;2024-01-27T13:55:27;10.90;60.00
57857;DHT22;43683;48.650;9.290;2024-01-27T13:57:52;10.90;60.20
57857;DHT22;43683;48.650;9.290;2024-01-27T14:00:18;11.00;60.40
57857;DHT22;43683;48.650;9.290;2024-01-27T14:02:44;10.90;60.40
57857;DHT22;43683;48.650;9.290;2024-01-27T14:05:10;10.90;60.60
57857;DHT22;43683;48.650;9.290;2024-01-27T14:07:36;10.80;60.80
57857;DHT22;43683;48.650;9.290;2024-01-27T14:10:02;10.70;61.30
57857;DHT22;43683;48.650;9.290;2024-01-27T14:12:27;10.70;61.50
57857;DHT22;43683;48.650;9.290;2024-01-27T14:14:53;10.60;61.80
57857;DHT22;43683;48.650;9.290;2024-01-27T14:17:19;10.40;61.60
57857;DHT22;43683;48.650;9.290;2024-01-27T14:19:46;10.30;61.90
57857;DHT22;43683;48.650;9.290;2024-01-27T14:22:12;10.20;61.90
57857;DHT22;43683;48.650;9.290;2024-01-27T14:24:38;10.20;62.10
57857;DHT22;43683;48.650;9.290;2024-01-27T14:27:05;10.20;62.20
57857;DHT22;43683;48.650;9.290;2024-01-27T14:29:31;10.30;62.30
57857;DHT22;43683;48.650;9.290;2024-01-27T14:31:57;10.30;62.40
57857;DHT22;43683;48.650;9.290;2024-01-27T14:34:23;10.30;62.50
57857;DHT22;43683;48.650;9.290;2024-01-27T14:36:48;10.10;62.70
57857;DHT22;43683;48.650;9.290;2024-01-27T14:39:14;10.00;62.70
57857;DHT22;43683;48.650;9.290;2024-01-27T14:41:40;10.00;62.70
57857;DHT22;43683;48.650;9.290;2024-01-27T14:44:05;9.90;62.80
57857;DHT22;43683;48.650;9.290;2024-01-27T14:46:31;9.80;63.00
57857;DHT22;43683;48.650;9.290;2024-01-27T14:48:57;9.80;63.00
57857;DHT22;43683;48.650;9.290;2024-01-27T14:51:22;9.60;63.00
57857;DHT22;43683;48.650;9.290;2024-01-27T14:53:48;9.50;63.00
57857;DHT22;43683;48.650;9.290;2024-01-27T14:56:14;9.50;63.40
57857;DHT22;43683;48.650;9.290;2024-01-27T14:58:40;9.40;63.60
57857;DHT22;43683;48.650;9.290;2024-01-27T15:01:06;9.40;63.50
57857;DHT22;43683;48.650;9.290;2024-01-27T15:03:31;9.10;63.20
57857;DHT22;43683;48.650;9.290;2024-01-27T15:05:58;8.80;63.70
57857;DHT22;43683;48.650;9.290;2024-01-27T15:08:24;8.40;63.00
57857;DHT22;43683;48.650;9.290;2024-01-27T15:10:49;8.20;63.10
57857;DHT22;43683;48.650;9.290;2024-01-27T15:13:15;7.90;63.10
57857;DHT22;43683;48.650;9.290;2024-01-27T15:15:45;7.70;63.20
57857;DHT22;43683;48.650;9.290;2024-01-27T15:18:11;7.50;63.40
57857;DHT22;43683;48.650;9.290;2024-01-27T15:20:37;7.30;63.60
57857;DHT22;43683;48.650;9.290;2024-01-27T15:23:03;7.10;63.90
57857;DHT22;43683;48.650;9.290;2024-01-27T15:25:29;7.00;64.20
57857;DHT22;43683;48.650;9.290;2024-01-27T15:27:56;6.80;64.60
57857;DHT22;43683;48.650;9.290;2024-01-27T15:30:21;6.60;65.60